Time;durP1;ratioP1;P1;durP2;ratioP2;P2;SDS_P1;SDS_P2;PMS_P1;PMS_P2;Temp;Humidity;BMP_temperature;BMP_pressure;BME280_temperature;BME280_humidity;BME280_pressure;Samples;Min_cycle;Max_cycle;Signal;HPM_P1;HPM_P2
2023/04/26 00:03:03;;;;;;;11.67;8.03;;;10.30;99.90;;;;;;10435812;28;20227;-79
2023/04/26 00:08:05;;;;;;;7.93;6.90;;;10.30;99.90;;;;;;10407567;28;20228;-79
2023/04/26 00:13:07;;;;;;;7.37;6.70;;;10.20;99.90;;;;;;10424918;28;20580;-79
2023/04/26 00:18:11;;;;;;;7.37;6.77;;;10.20;99.90;;;;;;10409042;28;20195;-80
2023/04/26 00:23:13;;;;;;;8.73;7.47;;;10.00;99.90;;;;;;10425204;28;20641;-80
2023/04/26 00:28:15;;;;;;;8.03;7.43;;;10.00;99.90;;;;;;10421885;28;20298;-80
2023/04/26 00:33:19;;;;;;;8.63;7.80;;;9.90;99.90;;;;;;10422626;28;20217;-80
2023/04/26 00:38:21;;;;;;;8.20;7.50;;;9.90;99.90;;;;;;10424278;28;20259;-81
2023/04/26 00:43:23;;;;;;;8.87;7.33;;;10.00;99.90;;;;;;10407582;28;20242;-81
2023/04/26 00:48:27;;;;;;;8.33;7.23;;;10.00;99.90;;;;;;10371694;28;20253;-79
2023/04/26 00:53:30;;;;;;;9.47;7.37;;;10.00;99.90;;;;;;10427301;28;20210;-81
2023/04/26 00:58:32;;;;;;;8.40;7.40;;;10.10;99.90;;;;;;10405063;28;20238;-81
2023/04/26 01:03:36;;;;;;;8.20;7.53;;;10.10;99.90;;;;;;10420705;28;20218;-80
2023/04/26 01:08:38;;;;;;;9.53;8.47;;;10.10;99.90;;;;;;10424816;28;20194;-81
2023/04/26 01:13:41;;;;;;;7.87;6.97;;;10.10;99.90;;;;;;10440345;28;20221;-81
2023/04/26 01:18:50;;;;;;;7.37;6.83;;;10.10;99.90;;;;;;10425439;28;20218;-81
2023/04/26 01:23:55;;;;;;;8.13;7.33;;;10.10;99.90;;;;;;10407837;28;20221;-80
2023/04/26 01:28:57;;;;;;;7.13;6.17;;;10.10;99.90;;;;;;10426292;28;20222;-80
2023/04/26 01:33:59;;;;;;;9.37;8.47;;;10.10;99.90;;;;;;10408685;28;20217;-81
2023/04/26 01:39:03;;;;;;;8.33;7.07;;;10.10;99.90;;;;;;10425826;28;20213;-81
2023/04/26 01:44:05;;;;;;;7.87;7.07;;;10.00;99.90;;;;;;10385184;28;20187;-81
2023/04/26 01:49:07;;;;;;;7.63;6.90;;;9.90;99.90;;;;;;10421245;28;20726;-80
2023/04/26 01:54:11;;;;;;;7.53;6.83;;;9.90;99.90;;;;;;10402741;28;20214;-80
2023/04/26 01:59:13;;;;;;;6.93;6.43;;;9.80;99.90;;;;;;10421197;28;20272;-79
2023/04/26 02:04:15;;;;;;;7.07;6.47;;;9.80;99.90;;;;;;10400588;28;20183;-78
2023/04/26 02:09:18;;;;;;;8.10;7.27;;;9.80;99.90;;;;;;10401078;28;20216;-79
2023/04/26 02:14:20;;;;;;;7.60;6.73;;;9.70;99.90;;;;;;10384876;28;20693;-79
2023/04/26 02:19:24;;;;;;;11.10;6.80;;;9.70;99.90;;;;;;10421790;28;20225;-80
2023/04/26 02:24:28;;;;;;;8.53;6.27;;;9.60;99.90;;;;;;10399058;28;20222;-80
2023/04/26 02:29:30;;;;;;;8.30;7.43;;;9.40;99.90;;;;;;10404125;28;20226;-79
2023/04/26 02:34:33;;;;;;;14.00;9.03;;;9.20;99.90;;;;;;10424193;28;20230;-78
2023/04/26 02:39:36;;;;;;;7.77;6.97;;;9.10;99.90;;;;;;10420976;28;20688;-80
2023/04/26 02:44:39;;;;;;;11.03;7.47;;;8.90;99.90;;;;;;10400395;28;20190;-79
2023/04/26 02:49:41;;;;;;;6.83;6.23;;;8.80;99.90;;;;;;10402278;28;20221;-80
2023/04/26 02:54:44;;;;;;;7.07;5.87;;;8.70;99.90;;;;;;10416684;28;20230;-80
2023/04/26 02:59:46;;;;;;;7.80;7.10;;;8.60;99.90;;;;;;10416063;28;20224;-80
2023/04/26 03:04:49;;;;;;;9.13;6.67;;;8.50;99.90;;;;;;10397690;28;20285;-80
2023/04/26 03:09:52;;;;;;;9.27;6.53;;;8.50;99.90;;;;;;10397659;28;20221;-80
2023/04/26 03:14:54;;;;;;;9.67;7.53;;;8.50;99.90;;;;;;10397577;28;20222;-78
2023/04/26 03:19:58;;;;;;;10.17;7.70;;;8.40;99.90;;;;;;10384477;28;20233;-79
2023/04/26 03:25:02;;;;;;;9.13;8.23;;;8.40;99.90;;;;;;10396031;28;20200;-79
2023/04/26 03:30:06;;;;;;;9.80;8.50;;;8.40;99.90;;;;;;10413557;28;20297;-79
2023/04/26 03:35:11;;;;;;;9.67;8.20;;;8.30;99.90;;;;;;10395345;28;20207;-79
2023/04/26 03:40:15;;;;;;;9.50;8.33;;;8.30;99.90;;;;;;10412958;28;20254;-79
2023/04/26 03:45:18;;;;;;;9.10;8.40;;;8.30;99.90;;;;;;10413885;28;20191;-79
2023/04/26 03:50:21;;;;;;;10.03;9.03;;;8.30;99.90;;;;;;10393996;28;20211;-79
2023/04/26 03:55:24;;;;;;;11.40;9.50;;;8.20;99.90;;;;;;10396906;28;20643;-79
2023/04/26 04:00:26;;;;;;;12.03;10.10;;;8.20;99.90;;;;;;10395450;28;20225;-79
2023/04/26 04:05:28;;;;;;;14.03;12.00;;;8.10;99.90;;;;;;10415981;28;20195;-79
2023/04/26 04:10:35;;;;;;;14.37;12.90;;;8.00;99.90;;;;;;10394375;28;20593;-78
2023/04/26 04:15:38;;;;;;;15.67;13.17;;;7.90;99.90;;;;;;10414111;28;20219;-79
2023/04/26 04:20:41;;;;;;;15.33;13.60;;;7.90;99.90;;;;;;10363690;28;20288;-78
2023/04/26 04:25:46;;;;;;;14.43;12.93;;;7.80;99.90;;;;;;10414613;28;20750;-80
2023/04/26 04:30:49;;;;;;;14.43;13.00;;;7.80;99.90;;;;;;10397514;28;20575;-79
2023/04/26 04:35:51;;;;;;;15.30;13.53;;;7.70;99.90;;;;;;10420929;28;20283;-80
2023/04/26 04:40:55;;;;;;;15.83;14.27;;;7.70;99.90;;;;;;10422588;28;20222;-79
2023/04/26 04:45:58;;;;;;;23.60;20.87;;;7.60;99.90;;;;;;10421347;28;20238;-80
2023/04/26 04:51:01;;;;;;;22.87;20.40;;;7.70;99.90;;;;;;10392057;28;20221;-79
2023/04/26 04:56:05;;;;;;;18.20;16.50;;;7.70;99.90;;;;;;10379908;28;20216;-79
2023/04/26 05:01:07;;;;;;;18.00;16.23;;;7.70;99.90;;;;;;10409930;28;20325;-79
2023/04/26 05:06:23;;;;;;;16.80;15.30;;;7.80;99.90;;;;;;10418020;28;20190;-78
2023/04/26 05:11:26;;;;;;;18.40;16.60;;;7.80;99.90;;;;;;10388541;28;20633;-79
2023/04/26 05:16:29;;;;;;;17.10;15.50;;;7.90;99.90;;;;;;10379647;28;20217;-78
2023/04/26 05:21:32;;;;;;;18.90;17.10;;;8.00;99.90;;;;;;10412111;28;20232;-79
2023/04/26 05:26:41;;;;;;;18.80;16.83;;;8.00;99.90;;;;;;10430233;28;20197;-79
2023/04/26 05:31:52;;;;;;;18.53;16.60;;;8.10;99.90;;;;;;10409107;28;20235;-77
2023/04/26 05:37:12;;;;;;;49.70;33.33;;;8.20;99.90;;;;;;10417820;28;20221;-79
2023/04/26 05:42:16;;;;;;;27.03;20.33;;;8.30;99.90;;;;;;10412429;28;20223;-79
2023/04/26 05:47:18;;;;;;;22.40;17.70;;;8.40;99.90;;;;;;10405284;28;20300;-78
2023/04/26 05:52:20;;;;;;;22.03;17.67;;;8.50;99.90;;;;;;10399168;28;20221;-79
2023/04/26 05:57:25;;;;;;;27.70;19.93;;;8.60;99.90;;;;;;10377586;28;20219;-79
2023/04/26 06:02:28;;;;;;;23.70;17.00;;;8.70;99.90;;;;;;10416477;28;20216;-78
2023/04/26 06:07:31;;;;;;;18.13;16.37;;;8.80;99.90;;;;;;10398792;28;20230;-77
2023/04/26 06:12:34;;;;;;;19.20;17.33;;;8.90;99.90;;;;;;10422562;28;20341;-79
2023/04/26 06:17:37;;;;;;;19.67;16.20;;;9.00;99.90;;;;;;10405985;28;20227;-78
2023/04/26 06:22:39;;;;;;;16.73;15.20;;;9.20;99.90;;;;;;10386745;28;20238;-79
2023/04/26 06:27:44;;;;;;;16.20;14.50;;;9.50;99.90;;;;;;10395718;28;20232;-77
2023/04/26 06:32:46;;;;;;;15.20;13.60;;;9.70;99.90;;;;;;10426126;28;20225;-77
2023/04/26 06:37:49;;;;;;;14.60;13.20;;;9.90;99.90;;;;;;10386101;28;20218;-77
2023/04/26 06:42:53;;;;;;;13.03;11.83;;;10.10;99.90;;;;;;10376477;28;20219;-78
2023/04/26 06:48:11;;;;;;;13.53;12.33;;;10.30;99.90;;;;;;10395005;28;20194;-79
2023/04/26 06:53:13;;;;;;;14.00;12.60;;;10.40;99.90;;;;;;10418504;28;20218;-79
2023/04/26 06:58:16;;;;;;;15.83;13.40;;;10.50;99.90;;;;;;10418444;28;20677;-79
2023/04/26 07:03:18;;;;;;;14.43;12.97;;;10.70;99.90;;;;;;10418315;28;20261;-79
2023/04/26 07:08:20;;;;;;;11.67;10.60;;;10.90;99.90;;;;;;10417747;28;20618;-79
2023/04/26 07:13:24;;;;;;;9.83;8.90;;;11.10;99.90;;;;;;10417628;28;20273;-79
2023/04/26 07:18:26;;;;;;;7.40;6.70;;;11.20;99.80;;;;;;10417907;28;20218;-79
2023/04/26 07:23:29;;;;;;;7.63;6.60;;;11.00;98.80;;;;;;10418700;28;20265;-79
2023/04/26 07:28:33;;;;;;;12.37;8.77;;;10.90;96.70;;;;;;10418609;28;20225;-79
2023/04/26 07:33:35;;;;;;;6.70;5.80;;;10.90;97.60;;;;;;10419039;28;20198;-79
2023/04/26 07:38:37;;;;;;;9.63;8.53;;;11.00;96.10;;;;;;10400522;28;20210;-78
2023/04/26 07:43:41;;;;;;;8.30;7.57;;;11.00;97.40;;;;;;10423117;28;20533;-79
2023/04/26 07:48:43;;;;;;;9.57;6.40;;;11.00;94.60;;;;;;10427111;28;20677;-79
2023/04/26 07:53:45;;;;;;;8.63;7.83;;;11.00;96.50;;;;;;10409272;28;20209;-78
2023/04/26 07:58:48;;;;;;;9.03;8.00;;;11.00;97.40;;;;;;10427795;28;20666;-79
2023/04/26 08:03:50;;;;;;;7.73;7.03;;;11.00;97.50;;;;;;10435779;28;20199;-79
2023/04/26 08:08:52;;;;;;;8.20;7.40;;;10.90;97.50;;;;;;10443068;28;20210;-78
2023/04/26 08:13:56;;;;;;;9.70;7.53;;;11.00;97.70;;;;;;10443861;28;20563;-78
2023/04/26 08:19:01;;;;;;;9.23;7.63;;;11.10;96.00;;;;;;10442130;28;20716;-78
2023/04/26 08:24:03;;;;;;;8.00;7.23;;;11.20;96.80;;;;;;10430648;28;20227;-79
2023/04/26 08:29:07;;;;;;;7.73;7.10;;;11.30;97.30;;;;;;10423553;28;20717;-79
2023/04/26 08:34:10;;;;;;;8.30;7.00;;;11.50;96.30;;;;;;10430671;28;20191;-79
2023/04/26 08:39:12;;;;;;;8.33;6.47;;;11.70;95.80;;;;;;10424508;28;20215;-79
2023/04/26 08:44:15;;;;;;;8.03;6.73;;;12.10;95.20;;;;;;10405905;28;20250;-79
2023/04/26 08:49:30;;;;;;;8.60;7.20;;;12.60;93.80;;;;;;10423010;28;20329;-79
2023/04/26 08:54:34;;;;;;;9.30;6.50;;;13.00;93.70;;;;;;10410631;28;20225;-80
2023/04/26 08:59:39;;;;;;;8.13;6.77;;;13.30;92.20;;;;;;10405173;28;20215;-79
2023/04/26 09:04:42;;;;;;;7.57;6.40;;;13.30;91.30;;;;;;10422333;28;20214;-79
2023/04/26 09:09:48;;;;;;;7.00;6.13;;;13.40;92.80;;;;;;10422664;28;20222;-79
2023/04/26 09:14:52;;;;;;;5.93;5.20;;;13.60;89.20;;;;;;10422720;28;20210;-79
2023/04/26 09:19:54;;;;;;;8.10;6.47;;;13.80;88.40;;;;;;10438000;22;20222;-85
2023/04/26 09:24:56;;;;;;;8.20;6.27;;;13.80;88.20;;;;;;10404838;28;20217;-84
2023/04/26 09:30:05;;;;;;;7.90;6.50;;;13.50;88.50;;;;;;10430001;28;20210;-84
2023/04/26 09:35:08;;;;;;;7.93;6.10;;;13.30;90.50;;;;;;10442631;28;20213;-83
2023/04/26 09:40:19;;;;;;;7.03;6.30;;;13.30;91.20;;;;;;10388387;28;20249;-84
2023/04/26 09:45:24;;;;;;;8.93;6.13;;;13.40;87.60;;;;;;10437365;28;20201;-83
2023/04/26 09:50:28;;;;;;;6.47;5.70;;;13.50;86.20;;;;;;10404456;28;20219;-84
2023/04/26 09:55:31;;;;;;;6.60;5.87;;;13.60;90.80;;;;;;10404886;28;20210;-84
2023/04/26 10:00:37;;;;;;;7.10;6.20;;;13.70;90.50;;;;;;10405443;28;20215;-83
2023/04/26 10:05:39;;;;;;;6.80;6.07;;;13.60;86.60;;;;;;10403954;28;20199;-83
2023/04/26 10:10:42;;;;;;;7.13;6.30;;;13.50;90.80;;;;;;10403712;28;20298;-82
2023/04/26 10:15:47;;;;;;;7.20;5.67;;;13.50;88.50;;;;;;10387185;28;20304;-83
2023/04/26 10:20:53;;;;;;;7.67;5.90;;;13.70;91.50;;;;;;10403062;28;20230;-83
2023/04/26 10:25:56;;;;;;;6.00;5.50;;;14.00;90.00;;;;;;10387883;28;20195;-84
2023/04/26 10:31:00;;;;;;;6.60;5.50;;;14.30;90.30;;;;;;10385463;28;20732;-83
2023/04/26 10:36:12;;;;;;;7.50;5.30;;;14.50;83.70;;;;;;10419438;28;20260;-83
2023/04/26 10:41:32;;;;;;;5.83;5.23;;;14.50;86.10;;;;;;10401851;28;20756;-84
2023/04/26 10:46:39;;;;;;;7.30;6.70;;;14.60;90.60;;;;;;10420899;28;20193;-83
2023/04/26 10:51:41;;;;;;;6.70;6.07;;;14.80;90.90;;;;;;10420528;28;20234;-84
2023/04/26 10:56:54;;;;;;;7.90;6.50;;;15.00;89.40;;;;;;10394342;28;20264;-83
2023/04/26 11:02:00;;;;;;;6.60;6.03;;;15.10;88.10;;;;;;10409224;28;20313;-84
2023/04/26 11:07:03;;;;;;;7.17;5.70;;;15.10;89.20;;;;;;10400804;28;20617;-85
2023/04/26 11:12:07;;;;;;;9.17;6.50;;;15.00;84.80;;;;;;10419449;28;20206;-84
2023/04/26 11:17:11;;;;;;;6.73;5.27;;;15.10;87.90;;;;;;10429105;28;20650;-84
2023/04/26 11:22:14;;;;;;;8.50;5.83;;;15.10;83.00;;;;;;10408169;28;20253;-84
2023/04/26 11:27:16;;;;;;;5.77;5.27;;;15.20;86.00;;;;;;10402362;28;20236;-84
2023/04/26 11:32:20;;;;;;;8.23;5.50;;;15.20;82.80;;;;;;10420703;28;20222;-83
2023/04/26 11:37:22;;;;;;;6.77;5.67;;;15.10;85.40;;;;;;10403101;28;20214;-84
2023/04/26 11:42:25;;;;;;;6.30;5.70;;;15.10;82.60;;;;;;10419905;28;20238;-83
2023/04/26 11:47:30;;;;;;;7.37;6.10;;;15.10;83.40;;;;;;10399549;28;20191;-83
2023/04/26 11:52:33;;;;;;;5.80;5.30;;;15.10;77.20;;;;;;10383485;28;20264;-83
2023/04/26 11:57:35;;;;;;;8.30;5.90;;;15.00;80.90;;;;;;10400367;28;20269;-83
2023/04/26 12:02:38;;;;;;;6.80;5.87;;;14.80;82.60;;;;;;10399605;28;20775;-84
2023/04/26 12:07:41;;;;;;;5.90;5.40;;;14.70;77.70;;;;;;10400761;28;20195;-84
2023/04/26 12:12:49;;;;;;;6.87;5.53;;;14.60;77.00;;;;;;10401491;28;20226;-83
2023/04/26 12:17:58;;;;;;;8.30;5.27;;;14.40;78.70;;;;;;10400935;28;20249;-83
2023/04/26 12:23:04;;;;;;;5.80;5.23;;;14.30;79.50;;;;;;10401098;28;20237;-85
2023/04/26 12:28:11;;;;;;;6.10;5.50;;;14.40;79.90;;;;;;10418364;28;20597;-85
2023/04/26 12:33:15;;;;;;;5.47;4.97;;;14.50;79.90;;;;;;10425191;28;20295;-84
2023/04/26 12:38:17;;;;;;;5.90;5.30;;;14.40;78.00;;;;;;10424840;28;20629;-85
2023/04/26 12:43:22;;;;;;;6.60;6.00;;;14.40;76.90;;;;;;10426265;28;20211;-84
2023/04/26 12:48:27;;;;;;;4.53;4.13;;;14.50;78.50;;;;;;10409146;28;20195;-84
2023/04/26 12:53:29;;;;;;;5.93;5.00;;;14.50;81.10;;;;;;10439255;28;20214;-83
2023/04/26 12:58:31;;;;;;;6.27;5.67;;;14.60;82.60;;;;;;10425937;28;20245;-84
2023/04/26 13:03:34;;;;;;;7.17;5.70;;;14.70;85.70;;;;;;10425106;28;20246;-83
2023/04/26 13:08:37;;;;;;;5.17;4.77;;;14.60;79.50;;;;;;10428337;28;20214;-84
2023/04/26 13:13:39;;;;;;;9.80;5.50;;;14.60;80.10;;;;;;10409776;28;20716;-84
2023/04/26 13:18:42;;;;;;;6.60;4.70;;;14.50;78.40;;;;;;10405760;28;20230;-84
2023/04/26 13:23:46;;;;;;;5.50;5.10;;;14.50;88.20;;;;;;10405407;28;20230;-84
2023/04/26 13:28:48;;;;;;;5.60;5.10;;;14.40;87.60;;;;;;10393973;28;20195;-84
2023/04/26 13:33:51;;;;;;;5.00;4.50;;;14.50;86.50;;;;;;10402673;28;20601;-84
2023/04/26 13:38:53;;;;;;;4.40;4.00;;;14.50;83.30;;;;;;10445574;28;20226;-84
2023/04/26 13:43:56;;;;;;;4.10;3.70;;;14.60;82.80;;;;;;10445042;28;20202;-84
2023/04/26 13:48:59;;;;;;;6.70;4.73;;;14.70;79.70;;;;;;10455897;28;20194;-83
2023/04/26 13:54:01;;;;;;;5.17;4.70;;;14.70;87.20;;;;;;10416320;28;20203;-84
2023/04/26 13:59:06;;;;;;;6.40;4.97;;;14.80;78.70;;;;;;10433164;28;20218;-84
2023/04/26 14:04:10;;;;;;;4.97;4.53;;;14.90;81.20;;;;;;10404697;28;20187;-84
2023/04/26 14:09:13;;;;;;;4.93;4.53;;;15.00;80.90;;;;;;10421696;28;20268;-84
2023/04/26 14:14:15;;;;;;;4.67;4.10;;;15.10;79.90;;;;;;10405220;28;20240;-85
2023/04/26 14:19:18;;;;;;;5.53;4.90;;;15.30;85.10;;;;;;10423783;28;20226;-84
2023/04/26 14:24:21;;;;;;;5.30;4.90;;;15.40;81.50;;;;;;10435369;28;20206;-83
2023/04/26 14:29:23;;;;;;;7.27;4.97;;;15.40;79.40;;;;;;10420788;28;20580;-83
2023/04/26 14:34:29;;;;;;;8.23;4.90;;;15.30;77.30;;;;;;10403258;28;20556;-84
2023/04/26 14:39:36;;;;;;;5.20;4.80;;;15.20;80.90;;;;;;10421637;28;20230;-84
2023/04/26 14:44:38;;;;;;;6.43;5.80;;;15.10;81.80;;;;;;10422726;28;20658;-84
2023/04/26 14:49:42;;;;;;;7.83;5.97;;;14.80;81.70;;;;;;10407198;28;20287;-84
2023/04/26 14:54:46;;;;;;;7.00;5.30;;;14.70;80.30;;;;;;10418400;28;20253;-83
2023/04/26 14:59:51;;;;;;;6.13;5.20;;;14.50;85.70;;;;;;10418593;28;20226;-84
2023/04/26 15:04:57;;;;;;;7.53;5.30;;;14.50;83.10;;;;;;10402491;28;20202;-84
2023/04/26 15:10:07;;;;;;;7.07;4.93;;;14.40;86.30;;;;;;10420041;28;20309;-83
2023/04/26 15:15:10;;;;;;;5.80;5.20;;;14.40;81.30;;;;;;10383873;28;20269;-83
2023/04/26 15:20:19;;;;;;;6.17;5.60;;;14.40;83.40;;;;;;10400415;28;20230;-83
2023/04/26 15:25:26;;;;;;;6.13;5.40;;;14.40;81.60;;;;;;10400906;28;20252;-84
2023/04/26 15:30:31;;;;;;;5.20;4.80;;;14.30;83.90;;;;;;10400626;28;20233;-84
2023/04/26 15:35:37;;;;;;;5.40;4.90;;;14.20;82.70;;;;;;10402361;28;20217;-82
2023/04/26 15:40:49;;;;;;;8.37;5.87;;;14.10;86.60;;;;;;10383582;28;20320;-84
2023/04/26 15:45:51;;;;;;;5.70;5.13;;;14.10;81.70;;;;;;10389340;28;20208;-83
2023/04/26 15:51:05;;;;;;;6.57;4.90;;;14.20;85.60;;;;;;10390340;28;20968;-83
2023/04/26 15:56:51;;;;;;;5.83;4.23;;;14.20;80.10;;;;;;10386166;28;20206;-83
2023/04/26 16:02:43;;;;;;;6.00;5.30;;;14.20;79.30;;;;;;10415805;28;20222;-83
2023/04/26 16:07:51;;;;;;;7.63;5.73;;;14.10;80.90;;;;;;10385576;28;20191;-84
2023/04/26 16:12:57;;;;;;;5.10;4.60;;;14.00;85.80;;;;;;10413265;28;20278;-82
2023/04/26 16:17:59;;;;;;;5.50;4.63;;;14.00;85.70;;;;;;10402178;28;20210;-83
2023/04/26 16:23:03;;;;;;;7.20;4.80;;;13.90;82.60;;;;;;10416316;28;20230;-83
2023/04/26 16:28:05;;;;;;;4.80;4.17;;;13.90;82.20;;;;;;10389829;28;20195;-83
2023/04/26 16:33:09;;;;;;;5.27;4.20;;;13.80;83.90;;;;;;10381499;28;20218;-84
2023/04/26 16:38:12;;;;;;;4.40;4.10;;;13.80;88.40;;;;;;10394356;28;20241;-84
2023/04/26 16:43:15;;;;;;;5.33;4.60;;;13.80;84.30;;;;;;10405095;28;20685;-83
2023/04/26 16:48:17;;;;;;;6.03;4.60;;;13.80;82.60;;;;;;10420923;28;20249;-83
2023/04/26 16:53:21;;;;;;;5.33;4.83;;;13.80;80.90;;;;;;10386802;28;20226;-82
2023/04/26 16:58:25;;;;;;;5.37;4.87;;;13.80;80.00;;;;;;10404004;28;20309;-82
2023/04/26 17:03:28;;;;;;;4.87;4.37;;;13.70;81.10;;;;;;10402244;28;20215;-83
2023/04/26 17:08:31;;;;;;;4.87;4.37;;;13.60;86.20;;;;;;10405921;28;20195;-83
2023/04/26 17:13:33;;;;;;;4.60;3.90;;;13.50;82.60;;;;;;10388645;28;20219;-83
2023/04/26 17:18:36;;;;;;;5.27;4.67;;;13.40;85.20;;;;;;10408041;28;20321;-83
2023/04/26 17:23:39;;;;;;;5.60;4.70;;;13.30;84.90;;;;;;10426229;28;20226;-84
2023/04/26 17:28:41;;;;;;;10.97;8.43;;;13.30;85.40;;;;;;10416420;28;20222;-84
2023/04/26 17:33:43;;;;;;;4.93;4.30;;;13.30;82.60;;;;;;10420869;28;20333;-83
2023/04/26 17:38:47;;;;;;;4.10;3.80;;;13.20;83.10;;;;;;10421013;28;20309;-83
2023/04/26 17:43:52;;;;;;;6.53;3.80;;;13.10;88.60;;;;;;10417582;28;20214;-82
2023/04/26 17:48:54;;;;;;;5.53;3.97;;;13.10;89.70;;;;;;10423172;28;20741;-82
2023/04/26 17:53:58;;;;;;;4.40;3.70;;;13.00;86.60;;;;;;10434049;28;20209;-82
2023/04/26 17:59:00;;;;;;;4.80;4.40;;;13.00;86.90;;;;;;10415792;28;20222;-82
2023/04/26 18:04:03;;;;;;;4.50;3.93;;;12.90;90.80;;;;;;10407988;28;20705;-81
2023/04/26 18:09:07;;;;;;;5.80;3.97;;;12.90;89.20;;;;;;10402473;28;20190;-81
2023/04/26 18:14:09;;;;;;;5.50;3.80;;;12.80;89.30;;;;;;10389249;28;20234;-82
2023/04/26 18:19:11;;;;;;;9.63;3.70;;;12.80;86.70;;;;;;10408637;28;20592;-82
2023/04/26 18:24:15;;;;;;;5.97;4.13;;;12.70;87.60;;;;;;10433697;28;20297;-82
2023/04/26 18:29:21;;;;;;;6.13;4.10;;;12.70;88.80;;;;;;10410319;28;20215;-82
2023/04/26 18:34:23;;;;;;;12.97;8.43;;;12.60;90.60;;;;;;10431142;28;20199;-82
2023/04/26 18:39:30;;;;;;;5.20;4.70;;;12.50;88.20;;;;;;10432683;28;20226;-82
2023/04/26 18:44:32;;;;;;;5.60;4.80;;;12.50;87.50;;;;;;10415485;28;20210;-81
2023/04/26 18:49:36;;;;;;;6.80;4.87;;;12.40;87.70;;;;;;10424449;28;20206;-81
2023/04/26 18:54:50;;;;;;;7.33;5.03;;;12.20;89.50;;;;;;10431749;28;20234;-81
2023/04/26 18:59:52;;;;;;;35.37;19.10;;;12.10;88.90;;;;;;10407353;28;20240;-81
2023/04/26 19:05:00;;;;;;;21.37;10.87;;;12.00;90.10;;;;;;10432389;28;20213;-81
2023/04/26 19:10:04;;;;;;;14.30;5.93;;;11.90;89.90;;;;;;10416098;28;20721;-81
2023/04/26 19:15:07;;;;;;;14.87;7.40;;;11.80;89.90;;;;;;10396005;28;20559;-80
2023/04/26 19:20:11;;;;;;;44.83;15.33;;;11.70;89.70;;;;;;10392766;28;20237;-82
2023/04/26 19:25:21;;;;;;;14.13;7.37;;;11.70;89.50;;;;;;10391929;28;20285;-82
2023/04/26 19:30:23;;;;;;;5.40;4.60;;;11.60;90.50;;;;;;10395856;28;20248;-81
2023/04/26 19:35:26;;;;;;;22.50;10.27;;;11.60;90.20;;;;;;10397901;28;20245;-81
2023/04/26 19:40:34;;;;;;;13.53;7.00;;;11.60;90.40;;;;;;10414460;28;20225;-81
2023/04/26 19:45:39;;;;;;;5.57;5.03;;;11.60;90.90;;;;;;10424544;28;20202;-81
2023/04/26 19:50:43;;;;;;;11.13;5.80;;;11.60;90.70;;;;;;10406635;28;20539;-80
2023/04/26 19:55:47;;;;;;;15.73;11.30;;;11.60;91.30;;;;;;10402260;28;20281;-81
2023/04/26 20:00:50;;;;;;;5.63;4.40;;;11.60;91.70;;;;;;10386175;28;20233;-81
2023/04/26 20:05:52;;;;;;;4.13;3.80;;;11.60;90.80;;;;;;10427263;28;20217;-81
2023/04/26 20:10:56;;;;;;;5.07;4.60;;;11.60;91.00;;;;;;10434399;28;20280;-81
2023/04/26 20:15:58;;;;;;;5.17;4.67;;;11.60;91.10;;;;;;10411455;28;20206;-81
2023/04/26 20:21:02;;;;;;;5.00;4.60;;;11.60;90.40;;;;;;10424489;28;20573;-82
2023/04/26 20:26:09;;;;;;;4.40;4.00;;;11.60;90.80;;;;;;10425574;28;20277;-81
2023/04/26 20:31:11;;;;;;;7.90;4.80;;;11.60;91.10;;;;;;10422040;28;20276;-82
2023/04/26 20:36:17;;;;;;;5.60;4.30;;;11.60;90.30;;;;;;10429116;28;20225;-80
2023/04/26 20:41:24;;;;;;;6.97;5.30;;;11.50;91.10;;;;;;10413562;28;20234;-81
2023/04/26 20:46:47;;;;;;;5.70;4.97;;;11.50;91.40;;;;;;10407649;28;20190;-81
2023/04/26 20:51:52;;;;;;;10.40;5.67;;;11.50;90.90;;;;;;10423488;28;20223;-82
2023/04/26 20:56:55;;;;;;;6.27;5.60;;;11.40;91.60;;;;;;10432902;28;20278;-80
2023/04/26 21:02:00;;;;;;;6.80;6.10;;;11.40;91.00;;;;;;10394646;28;20219;-81
2023/04/26 21:07:03;;;;;;;10.77;5.60;;;11.40;91.50;;;;;;10402004;28;20282;-82
2023/04/26 21:12:14;;;;;;;5.67;5.10;;;11.30;90.70;;;;;;10410967;28;20607;-81
2023/04/26 21:17:18;;;;;;;5.60;4.90;;;11.30;90.80;;;;;;10413869;28;20210;-81
2023/04/26 21:22:20;;;;;;;6.23;4.30;;;11.20;91.00;;;;;;10436556;23;20226;-80
2023/04/26 21:27:23;;;;;;;9.27;6.60;;;11.10;91.50;;;;;;10407489;28;20202;-81
2023/04/26 21:32:25;;;;;;;5.77;4.67;;;11.00;91.80;;;;;;10425276;28;20214;-82
2023/04/26 21:37:27;;;;;;;7.10;4.87;;;11.00;91.80;;;;;;10383941;28;20617;-79
2023/04/26 21:42:31;;;;;;;5.60;3.80;;;10.90;91.00;;;;;;10395810;28;20218;-79
2023/04/26 21:47:33;;;;;;;6.30;3.33;;;10.90;91.30;;;;;;10359330;28;20200;-78
2023/04/26 21:52:35;;;;;;;6.03;4.93;;;10.80;91.30;;;;;;10371389;28;20770;-78
2023/04/26 21:57:38;;;;;;;6.70;5.80;;;10.80;91.20;;;;;;10370137;28;20215;-78
2023/04/26 22:02:40;;;;;;;4.93;4.40;;;10.80;91.40;;;;;;10395976;28;20222;-81
2023/04/26 22:07:42;;;;;;;4.57;4.07;;;10.70;91.50;;;;;;10375356;28;20191;-78
2023/04/26 22:12:46;;;;;;;5.03;3.67;;;10.70;91.90;;;;;;10393885;28;20227;-78
2023/04/26 22:17:48;;;;;;;4.17;3.97;;;10.70;91.70;;;;;;10374378;28;20298;-81
2023/04/26 22:22:50;;;;;;;5.40;4.90;;;10.70;92.30;;;;;;10367910;28;20223;-79
2023/04/26 22:27:53;;;;;;;5.73;4.80;;;10.70;92.40;;;;;;10393529;28;20199;-81
2023/04/26 22:32:58;;;;;;;5.10;4.70;;;10.80;92.70;;;;;;10376724;28;20580;-80
2023/04/26 22:38:00;;;;;;;10.10;6.37;;;10.80;92.20;;;;;;10359551;28;20211;-80
2023/04/26 22:43:03;;;;;;;8.37;5.60;;;10.80;93.20;;;;;;10370587;28;20221;-79
2023/04/26 22:48:07;;;;;;;18.17;9.30;;;10.80;92.60;;;;;;10393193;28;20258;-79
2023/04/26 22:53:09;;;;;;;6.50;5.47;;;10.80;92.80;;;;;;10401677;28;20218;-79
2023/04/26 22:58:13;;;;;;;5.60;5.07;;;10.90;92.30;;;;;;10388703;28;20241;-79
2023/04/26 23:03:15;;;;;;;6.97;4.73;;;10.80;92.30;;;;;;10381713;28;20211;-80
2023/04/26 23:08:17;;;;;;;7.53;5.30;;;10.80;92.20;;;;;;10407080;28;20317;-80
2023/04/26 23:13:20;;;;;;;8.60;6.30;;;10.70;92.40;;;;;;10393258;28;20313;-80
2023/04/26 23:18:22;;;;;;;12.60;7.23;;;10.60;93.00;;;;;;10367135;28;20231;-80
2023/04/26 23:23:24;;;;;;;13.10;6.30;;;10.60;93.00;;;;;;10401574;28;20230;-80
2023/04/26 23:28:28;;;;;;;5.47;4.90;;;10.60;93.30;;;;;;10392130;28;20569;-78
2023/04/26 23:33:30;;;;;;;6.33;4.80;;;10.60;92.90;;;;;;10385446;28;20218;-80
2023/04/26 23:38:32;;;;;;;6.57;4.43;;;10.60;93.20;;;;;;10398135;28;20250;-79
2023/04/26 23:43:35;;;;;;;5.37;4.83;;;10.60;92.80;;;;;;10390328;28;20296;-80
2023/04/26 23:48:37;;;;;;;5.30;4.70;;;10.60;92.90;;;;;;10380034;28;20214;-79
2023/04/26 23:53:39;;;;;;;7.83;4.50;;;10.50;92.90;;;;;;10386359;28;20693;-79
2023/04/26 23:58:43;;;;;;;5.53;4.23;;;10.60;92.90;;;;;;10381559;28;20249;-79
